Vaughan, North Carolina
Current Conditions -  °F | °C
As of 8:56 AM on Monday 22 Dec 2014 (Local Time) from KAVC Reporting Station
Overcast Overcast  
Wind Chill: 29°   Ceiling: 600
Heat Index: 34°   Visibility: 1.2mi
Dew Point: 33°   Wind: 6mph
Humidity: 96%   Direction: 30°NNE
Pressure: 30.24"   Gusts: NA
Location:  36.43°N, 78°W
Report Text: KAVC 221356Z AUTO 03005KT 1 1/4SM OVC006 01/01 A3024 RMK AO2 P0007 T00100005
Loading
Personal Weather Stations






























Interactive Weather Map New forecast layout! Learn more

10-Day Weather Forecast

Advertisements
Track Severe Weather on mobile